Aylett, Virginia
Current Conditions -  °F | °C
As of 8:55 AM on Saturday 22 Nov 2014 (Local Time) from KXSA Reporting Station
Clear Clear  
Wind Chill: 26°   Ceiling: Unl
Heat Index: 33°   Visibility: 10mi
Dew Point: 17°   Wind: 8mph
Humidity: 53%   Direction: 200°SSW
Pressure: 30.56"   Gusts: NA
Location:  37.79°N, 77.11°W
Report Text: KXSA 221355Z AUTO 20007KT 10SM CLR 01/M08 A3056 RMK AO2 T00051081
Loading
Personal Weather Stations






























Interactive Weather Map New forecast layout! Learn more

10-Day Weather Forecast

Advertisements
Track Severe Weather on mobile